Time;durP1;ratioP1;P1;durP2;ratioP2;P2;SDS_P1;SDS_P2;PMS_P1;PMS_P2;Temp;Humidity;BMP_temperature;BMP_pressure;BME280_temperature;BME280_humidity;BME280_pressure;Samples;Min_cycle;Max_cycle;Signal;HPM_P1;HPM_P2
2023/01/23 00:00:37;;;;;;;16.17;14.02;;;22.50;73.70;;;;;;6208005;28;89144;-72
2023/01/23 00:03:39;;;;;;;15.77;14.00;;;22.50;73.70;;;;;;6209548;28;87250;-72
2023/01/23 00:06:42;;;;;;;15.50;13.90;;;22.50;73.70;;;;;;6208042;28;88318;-72
2023/01/23 00:09:44;;;;;;;15.48;13.88;;;22.40;73.60;;;;;;6207228;28;89127;-72
2023/01/23 00:12:48;;;;;;;16.83;14.32;;;22.50;73.70;;;;;;6205278;28;90104;-72
2023/01/23 00:15:50;;;;;;;17.35;14.60;;;22.40;73.60;;;;;;6207909;28;89065;-72
2023/01/23 00:18:52;;;;;;;15.80;14.07;;;22.40;73.50;;;;;;6195358;28;89358;-72
2023/01/23 00:21:54;;;;;;;16.65;14.85;;;22.40;73.50;;;;;;6205600;28;89150;-72
2023/01/23 00:24:56;;;;;;;16.67;14.98;;;22.40;73.50;;;;;;6206682;28;89084;-73
2023/01/23 00:28:00;;;;;;;15.82;13.98;;;22.40;73.50;;;;;;6188064;28;89185;-71
2023/01/23 00:31:04;;;;;;;16.27;14.57;;;22.30;73.50;;;;;;6192710;28;89000;-71
2023/01/23 00:34:10;;;;;;;16.10;14.40;;;22.30;73.50;;;;;;6203703;28;88377;-71
2023/01/23 00:37:12;;;;;;;16.23;14.52;;;22.40;73.60;;;;;;6203282;28;89178;-72
2023/01/23 00:40:14;;;;;;;16.77;15.02;;;22.30;73.60;;;;;;6204859;28;88813;-70
2023/01/23 00:43:18;;;;;;;17.15;15.45;;;22.40;73.60;;;;;;6198682;28;90506;-71
2023/01/23 00:46:20;;;;;;;19.15;15.82;;;22.30;73.50;;;;;;6206881;28;89496;-73
2023/01/23 00:49:23;;;;;;;17.83;15.88;;;22.30;73.50;;;;;;6202652;28;89082;-72
2023/01/23 00:52:25;;;;;;;17.38;15.55;;;22.30;73.40;;;;;;6197693;28;89128;-72
2023/01/23 00:55:27;;;;;;;18.25;15.55;;;22.30;73.50;;;;;;6204753;28;89169;-73
2023/01/23 00:58:30;;;;;;;16.75;15.02;;;22.30;73.40;;;;;;6203435;28;89151;-72
2023/01/23 01:01:32;;;;;;;17.35;15.50;;;22.20;73.50;;;;;;6194052;28;88268;-72
2023/01/23 01:04:34;;;;;;;16.38;14.77;;;22.20;73.40;;;;;;6189614;28;88637;-72
2023/01/23 01:07:36;;;;;;;16.85;14.90;;;22.20;73.20;;;;;;6198140;28;87813;-72
2023/01/23 01:10:40;;;;;;;16.45;14.52;;;22.20;70.90;;;;;;6205046;28;89133;-72
2023/01/23 01:13:44;;;;;;;16.67;14.98;;;22.20;70.50;;;;;;6206297;28;90307;-72
2023/01/23 01:16:46;;;;;;;16.90;15.18;;;22.20;71.50;;;;;;6204844;28;89261;-71
2023/01/23 01:19:48;;;;;;;16.10;14.40;;;22.10;72.00;;;;;;6205230;28;89425;-72
2023/01/23 01:22:50;;;;;;;16.15;14.50;;;22.20;72.20;;;;;;6205630;28;88974;-72
2023/01/23 01:25:53;;;;;;;16.55;14.85;;;22.20;72.30;;;;;;6205926;28;89063;-71
2023/01/23 01:28:56;;;;;;;16.60;14.90;;;22.20;72.40;;;;;;6206127;28;89295;-71
2023/01/23 01:31:58;;;;;;;16.63;14.93;;;22.10;72.50;;;;;;6204250;28;87885;-72
2023/01/23 01:35:00;;;;;;;16.60;14.90;;;22.10;72.60;;;;;;6205257;28;88304;-72
2023/01/23 01:38:02;;;;;;;15.93;14.32;;;22.10;72.60;;;;;;6202243;28;89127;-72
2023/01/23 01:41:04;;;;;;;16.67;14.98;;;22.10;72.70;;;;;;6194863;28;89123;-71
2023/01/23 01:44:14;;;;;;;15.98;14.35;;;22.10;72.80;;;;;;6195175;28;90118;-70
2023/01/23 01:47:16;;;;;;;16.60;14.90;;;22.00;72.80;;;;;;6204645;28;88988;-72
2023/01/23 01:50:18;;;;;;;16.05;14.45;;;22.00;72.70;;;;;;6182404;28;87983;-72
2023/01/23 01:53:23;;;;;;;17.17;15.40;;;22.00;72.70;;;;;;6202630;28;87973;-71
2023/01/23 01:56:26;;;;;;;16.40;14.75;;;22.00;72.70;;;;;;6203644;28;88009;-72
2023/01/23 01:59:34;;;;;;;16.65;14.95;;;22.00;72.70;;;;;;6203857;28;87830;-73
2023/01/23 02:02:42;;;;;;;16.17;14.48;;;22.00;72.70;;;;;;6202993;28;89140;-71
2023/01/23 02:05:47;;;;;;;15.93;14.32;;;22.00;72.80;;;;;;6184579;28;88345;-72
2023/01/23 02:08:57;;;;;;;15.57;13.98;;;22.00;72.80;;;;;;6195050;28;89422;-72
2023/01/23 02:11:59;;;;;;;15.80;14.18;;;22.00;72.80;;;;;;6193730;28;89186;-72
2023/01/23 02:15:05;;;;;;;16.10;14.50;;;22.00;72.80;;;;;;6204488;28;90061;-72
2023/01/23 02:18:07;;;;;;;15.52;14.02;;;22.00;72.80;;;;;;6204370;28;89027;-72
2023/01/23 02:21:10;;;;;;;15.15;13.65;;;21.90;72.80;;;;;;6204004;28;89253;-73
2023/01/23 02:24:21;;;;;;;15.55;13.95;;;21.90;72.80;;;;;;6205264;28;89017;-72
2023/01/23 02:27:24;;;;;;;16.25;14.55;;;21.90;72.80;;;;;;6205219;28;89130;-72
2023/01/23 02:30:27;;;;;;;15.65;14.05;;;21.90;72.80;;;;;;6205765;28;89116;-70
2023/01/23 02:33:47;;;;;;;15.00;13.50;;;21.90;72.80;;;;;;6203431;28;89020;-72
2023/01/23 02:36:50;;;;;;;14.07;12.68;;;21.90;72.80;;;;;;6203522;28;88423;-71
2023/01/23 02:39:52;;;;;;;15.43;13.93;;;21.90;72.80;;;;;;6205501;28;89199;-72
2023/01/23 02:42:55;;;;;;;15.77;14.18;;;21.90;72.90;;;;;;6205504;28;89155;-72
2023/01/23 02:45:58;;;;;;;14.73;13.32;;;21.80;72.80;;;;;;6191220;28;89972;-72
2023/01/23 02:48:59;;;;;;;14.82;13.32;;;21.80;72.90;;;;;;6206025;28;89088;-73
2023/01/23 02:52:02;;;;;;;14.38;12.98;;;21.80;72.90;;;;;;6195577;28;89044;-72
2023/01/23 02:55:04;;;;;;;14.80;13.27;;;21.80;72.80;;;;;;6198813;28;89052;-72
2023/01/23 03:01:28;;;;;;;14.38;12.95;;;21.80;72.90;;;;;;6213394;28;87370;-72
2023/01/23 03:04:30;;;;;;;13.88;12.57;;;21.80;72.90;;;;;;6213113;28;89175;-71
2023/01/23 03:07:32;;;;;;;13.88;12.50;;;21.80;72.90;;;;;;6214097;28;88343;-72
2023/01/23 03:10:34;;;;;;;14.40;12.95;;;21.80;72.90;;;;;;6213165;28;89091;-71
2023/01/23 03:13:37;;;;;;;13.48;12.18;;;21.80;72.90;;;;;;6213674;28;89452;-70
2023/01/23 03:16:40;;;;;;;13.27;11.98;;;21.80;72.90;;;;;;6190849;28;89979;-72
2023/01/23 03:19:42;;;;;;;13.02;11.73;;;21.70;73.00;;;;;;6207826;28;88420;-72
2023/01/23 03:22:45;;;;;;;13.57;12.25;;;21.70;72.90;;;;;;6207757;28;88985;-72
2023/01/23 03:25:48;;;;;;;14.30;12.85;;;21.70;73.00;;;;;;6201473;28;88198;-72
2023/01/23 03:32:13;;;;;;;12.90;11.68;;;21.70;73.00;;;;;;6208446;28;87207;-73
2023/01/23 03:35:17;;;;;;;12.77;11.48;;;21.70;73.00;;;;;;6212456;28;89127;-72
2023/01/23 03:38:19;;;;;;;12.77;11.57;;;21.70;73.00;;;;;;6207998;28;88299;-73
2023/01/23 03:41:26;;;;;;;12.90;11.60;;;21.70;73.00;;;;;;6193929;28;89076;-72
2023/01/23 03:44:29;;;;;;;12.30;11.10;;;21.70;73.00;;;;;;6210817;28;89106;-72
2023/01/23 03:47:31;;;;;;;12.57;11.38;;;21.70;73.00;;;;;;6211841;28;90078;-72
2023/01/23 03:50:33;;;;;;;12.27;11.02;;;21.70;73.00;;;;;;6204489;28;89053;-72
2023/01/23 03:53:35;;;;;;;12.60;11.40;;;21.60;72.90;;;;;;6204313;28;89159;-72
2023/01/23 03:56:37;;;;;;;12.65;11.38;;;21.60;73.00;;;;;;6207915;28;89149;-72
2023/01/23 03:59:41;;;;;;;12.20;11.00;;;21.60;73.00;;;;;;6207535;28;89201;-72
2023/01/23 04:02:43;;;;;;;12.30;11.02;;;21.60;73.00;;;;;;6207499;28;89461;-72
2023/01/23 04:05:45;;;;;;;12.18;11.05;;;21.60;73.00;;;;;;6212065;28;89038;-71
2023/01/23 04:08:47;;;;;;;12.25;11.15;;;21.60;73.00;;;;;;6210812;28;88344;-72
2023/01/23 04:11:49;;;;;;;11.95;10.85;;;21.60;73.00;;;;;;6200449;28;89013;-72
2023/01/23 04:14:52;;;;;;;11.10;10.10;;;21.60;73.00;;;;;;6208006;28;88844;-72
2023/01/23 04:17:54;;;;;;;11.55;10.45;;;21.60;73.00;;;;;;6207372;28;89981;-72
2023/01/23 04:20:57;;;;;;;11.18;10.07;;;21.60;73.00;;;;;;6207118;28;89170;-72
2023/01/23 04:23:59;;;;;;;11.23;10.13;;;21.60;72.80;;;;;;6204254;28;89318;-71
2023/01/23 04:27:01;;;;;;;11.13;10.02;;;21.60;72.90;;;;;;6205441;28;89033;-71
2023/01/23 04:30:05;;;;;;;11.55;10.45;;;21.50;72.70;;;;;;6201635;28;89174;-71
2023/01/23 04:33:07;;;;;;;10.52;9.52;;;21.50;72.70;;;;;;6198977;28;89051;-73
2023/01/23 04:36:11;;;;;;;10.95;9.93;;;21.50;72.70;;;;;;6206292;28;88986;-72
2023/01/23 04:39:13;;;;;;;10.95;9.95;;;21.60;72.80;;;;;;6203156;28;88364;-71
2023/01/23 04:42:15;;;;;;;10.52;9.52;;;21.60;72.70;;;;;;6203240;28;89036;-71
2023/01/23 04:45:18;;;;;;;10.30;9.30;;;21.60;72.70;;;;;;6205796;28;89165;-72
2023/01/23 04:48:20;;;;;;;10.02;9.10;;;21.60;72.70;;;;;;6207249;28;90264;-71
2023/01/23 04:51:22;;;;;;;10.50;9.50;;;21.60;72.60;;;;;;6205271;28;89278;-72
2023/01/23 04:54:26;;;;;;;9.68;8.80;;;21.60;72.50;;;;;;6207027;28;89143;-73
2023/01/23 04:57:28;;;;;;;9.45;8.55;;;21.70;72.50;;;;;;6206723;28;89395;-72
2023/01/23 05:00:31;;;;;;;9.82;8.93;;;21.60;72.50;;;;;;6207687;28;89117;-72
2023/01/23 05:03:33;;;;;;;9.95;8.95;;;21.70;72.40;;;;;;6203640;28;89172;-70
2023/01/23 05:06:36;;;;;;;9.38;8.48;;;21.70;72.30;;;;;;6206163;28;88087;-72
2023/01/23 05:09:38;;;;;;;9.30;8.40;;;21.70;72.30;;;;;;6195688;28;88358;-72
2023/01/23 05:12:40;;;;;;;9.50;8.55;;;21.70;72.20;;;;;;6205338;28;89046;-73
2023/01/23 05:15:44;;;;;;;9.15;8.30;;;21.80;72.20;;;;;;6206040;28;89116;-73
2023/01/23 05:18:46;;;;;;;8.75;7.95;;;21.80;72.20;;;;;;6198976;28;89983;-71
2023/01/23 05:21:48;;;;;;;9.00;8.20;;;21.80;72.10;;;;;;6207163;28;89121;-72
2023/01/23 05:24:50;;;;;;;8.70;7.88;;;21.80;72.00;;;;;;6202016;28;89109;-73
2023/01/23 05:27:52;;;;;;;8.65;7.85;;;21.90;72.10;;;;;;6200605;28;88018;-72
2023/01/23 05:30:56;;;;;;;9.00;8.10;;;21.80;72.00;;;;;;6193352;28;89419;-72
2023/01/23 05:33:58;;;;;;;8.75;7.95;;;21.90;72.00;;;;;;6198661;28;89011;-72
2023/01/23 05:37:00;;;;;;;8.48;7.68;;;21.90;72.00;;;;;;6206462;28;89108;-73
2023/01/23 05:40:02;;;;;;;8.45;7.60;;;22.00;72.80;;;;;;6206771;28;87286;-73
2023/01/23 05:43:05;;;;;;;8.32;7.60;;;21.90;71.80;;;;;;6205795;28;89051;-72
2023/01/23 05:46:08;;;;;;;7.95;7.25;;;22.00;71.80;;;;;;6206745;28;89081;-72
2023/01/23 05:49:10;;;;;;;7.80;7.10;;;22.00;71.70;;;;;;6206290;28;90032;-73
2023/01/23 05:52:12;;;;;;;8.05;7.35;;;22.00;71.60;;;;;;6204374;28;89279;-72
2023/01/23 05:55:15;;;;;;;8.45;7.65;;;22.00;71.60;;;;;;6198408;28;89098;-69
2023/01/23 05:58:17;;;;;;;7.70;7.00;;;22.10;71.70;;;;;;6200903;28;88359;-75
2023/01/23 06:01:21;;;;;;;7.78;7.07;;;22.10;71.80;;;;;;6200718;28;89116;-74
2023/01/23 06:04:24;;;;;;;7.53;6.82;;;22.10;72.00;;;;;;6188941;28;89177;-75
2023/01/23 06:07:26;;;;;;;7.18;6.57;;;22.10;72.00;;;;;;6191235;28;89152;-75
2023/01/23 06:10:29;;;;;;;7.32;6.70;;;22.10;72.10;;;;;;6195911;28;88615;-75
2023/01/23 06:13:31;;;;;;;7.13;6.53;;;22.20;72.20;;;;;;6191710;28;89464;-77
2023/01/23 06:16:34;;;;;;;7.28;6.68;;;22.20;72.20;;;;;;6199939;28;89067;-77
2023/01/23 06:19:36;;;;;;;7.57;6.85;;;22.20;72.20;;;;;;6190926;28;90107;-77
2023/01/23 06:22:38;;;;;;;7.22;6.63;;;22.30;72.20;;;;;;6187521;28;89016;-75
2023/01/23 06:25:40;;;;;;;7.90;7.20;;;22.30;72.20;;;;;;6199342;28;89087;-76
2023/01/23 06:28:42;;;;;;;7.32;6.65;;;22.30;72.10;;;;;;6196509;28;89064;-74
2023/01/23 06:31:46;;;;;;;6.97;6.25;;;22.30;72.10;;;;;;6192188;28;90828;-75
2023/01/23 06:34:48;;;;;;;7.38;6.68;;;22.30;72.10;;;;;;6187559;28;89161;-76
2023/01/23 06:38:24;;;;;;;7.32;6.63;;;22.30;72.00;;;;;;6199191;28;88007;-75
2023/01/23 06:41:26;;;;;;;6.90;6.30;;;22.40;72.00;;;;;;6204987;28;88346;-75
2023/01/23 06:44:28;;;;;;;7.20;6.60;;;22.30;71.80;;;;;;6199482;28;89201;-76
2023/01/23 06:47:32;;;;;;;7.30;6.60;;;22.30;71.80;;;;;;6200144;28;89177;-75
2023/01/23 06:50:34;;;;;;;7.00;6.40;;;22.30;71.80;;;;;;6204495;28;90090;-76
2023/01/23 06:53:36;;;;;;;7.35;6.72;;;22.40;71.90;;;;;;6205034;28;89237;-75
2023/01/23 06:56:38;;;;;;;6.78;6.18;;;22.30;71.80;;;;;;6206287;28;90706;-76
2023/01/23 06:59:41;;;;;;;7.20;6.50;;;22.30;71.70;;;;;;6203548;28;89079;-75
2023/01/23 07:02:44;;;;;;;6.68;6.07;;;22.40;71.80;;;;;;6198488;28;89117;-74
2023/01/23 07:05:47;;;;;;;6.80;6.20;;;22.40;71.80;;;;;;6200118;28;89076;-75
2023/01/23 07:08:49;;;;;;;6.55;5.95;;;22.40;71.80;;;;;;6204277;28;89057;-76
2023/01/23 07:11:51;;;;;;;6.75;6.15;;;22.40;71.80;;;;;;6204780;28;88317;-76
2023/01/23 07:14:53;;;;;;;6.78;6.18;;;22.40;71.70;;;;;;6203782;28;89019;-75
2023/01/23 07:17:57;;;;;;;6.60;6.00;;;22.40;71.80;;;;;;6204465;28;87978;-75
2023/01/23 07:20:59;;;;;;;7.03;6.43;;;22.40;71.80;;;;;;6192747;28;90179;-75
2023/01/23 07:24:01;;;;;;;7.10;6.50;;;22.40;71.70;;;;;;6203921;28;89379;-76
2023/01/23 07:27:04;;;;;;;7.00;6.40;;;22.40;71.80;;;;;;6205603;28;89257;-75
2023/01/23 07:30:07;;;;;;;7.25;6.60;;;22.40;71.80;;;;;;6205574;28;89160;-75
2023/01/23 07:33:12;;;;;;;7.40;6.70;;;22.50;71.80;;;;;;6203573;28;89079;-75
2023/01/23 07:36:17;;;;;;;7.22;6.43;;;22.40;71.80;;;;;;6204207;28;89048;-74
2023/01/23 07:39:19;;;;;;;7.55;6.85;;;22.50;71.80;;;;;;6204713;28;88988;-75
2023/01/23 07:42:21;;;;;;;8.00;7.20;;;22.50;71.80;;;;;;6204695;28;88251;-75
2023/01/23 07:45:23;;;;;;;7.78;6.97;;;22.50;71.80;;;;;;6201610;28;89252;-75
2023/01/23 07:48:30;;;;;;;8.30;7.50;;;22.50;71.80;;;;;;6200427;28;89137;-73
2023/01/23 07:51:32;;;;;;;8.32;7.53;;;22.50;71.80;;;;;;6200943;28;89846;-74
2023/01/23 07:54:34;;;;;;;8.45;7.50;;;22.50;71.80;;;;;;6208151;28;89156;-73
2023/01/23 07:57:36;;;;;;;8.13;7.43;;;22.50;71.80;;;;;;6205360;28;89255;-75
2023/01/23 08:00:40;;;;;;;9.15;8.20;;;22.50;71.80;;;;;;6205987;28;89060;-75
2023/01/23 08:03:43;;;;;;;8.68;7.88;;;22.50;71.80;;;;;;6204565;28;88423;-75
2023/01/23 08:06:46;;;;;;;9.20;8.27;;;22.50;71.80;;;;;;6206038;28;89112;-75
2023/01/23 08:09:48;;;;;;;8.82;8.02;;;22.50;71.80;;;;;;6207552;28;89376;-75
2023/01/23 08:12:50;;;;;;;9.40;8.38;;;22.50;71.80;;;;;;6209322;28;88305;-75
2023/01/23 08:15:53;;;;;;;9.38;8.48;;;22.60;71.80;;;;;;6220472;28;87965;-74
2023/01/23 08:18:56;;;;;;;9.73;8.80;;;22.60;72.00;;;;;;6197692;28;87985;-76
2023/01/23 08:21:58;;;;;;;8.85;8.05;;;22.60;71.90;;;;;;6206838;28;90045;-75
2023/01/23 08:25:00;;;;;;;9.75;8.85;;;22.60;71.90;;;;;;6206448;28;89191;-77
2023/01/23 08:28:02;;;;;;;9.32;8.45;;;22.60;71.80;;;;;;6201185;28;89118;-76
2023/01/23 08:31:07;;;;;;;9.90;8.93;;;22.50;71.80;;;;;;6208085;28;89072;-77
2023/01/23 08:34:10;;;;;;;9.23;8.32;;;22.60;71.90;;;;;;6206409;28;89055;-77
2023/01/23 08:37:12;;;;;;;9.40;8.57;;;22.60;72.00;;;;;;6197060;28;87978;-76
2023/01/23 08:40:15;;;;;;;9.57;8.68;;;22.60;72.00;;;;;;6207475;28;87893;-76
2023/01/23 08:43:18;;;;;;;9.27;8.38;;;22.50;72.00;;;;;;6205962;28;88332;-75
2023/01/23 08:46:20;;;;;;;9.55;8.63;;;22.60;72.20;;;;;;6207353;28;88164;-76
2023/01/23 08:49:24;;;;;;;10.15;9.10;;;22.50;72.20;;;;;;6204735;28;89130;-76
2023/01/23 08:52:26;;;;;;;9.85;8.95;;;22.50;72.20;;;;;;6206565;28;90027;-76
2023/01/23 08:55:28;;;;;;;9.65;8.75;;;22.50;72.20;;;;;;6202148;28;88920;-77
2023/01/23 08:58:30;;;;;;;9.77;8.88;;;22.50;72.20;;;;;;6206191;28;89228;-77
2023/01/23 09:01:33;;;;;;;9.68;8.77;;;22.50;72.20;;;;;;6207851;28;89148;-75
2023/01/23 09:04:38;;;;;;;9.65;8.70;;;22.40;72.20;;;;;;6206704;28;89474;-76
2023/01/23 09:07:40;;;;;;;9.93;8.80;;;22.50;72.30;;;;;;6207847;28;89126;-76
2023/01/23 09:10:42;;;;;;;9.60;8.63;;;22.50;72.30;;;;;;6200439;28;89138;-76
2023/01/23 09:13:45;;;;;;;9.57;8.68;;;22.50;72.30;;;;;;6189887;28;89541;-76
2023/01/23 09:16:47;;;;;;;9.85;8.90;;;22.50;72.30;;;;;;6205775;28;87967;-76
2023/01/23 09:19:51;;;;;;;10.32;9.32;;;22.50;72.30;;;;;;6207346;28;89098;-78
2023/01/23 09:22:53;;;;;;;10.57;9.48;;;22.40;72.30;;;;;;6205398;28;90454;-76
2023/01/23 09:25:55;;;;;;;9.57;8.68;;;22.50;72.30;;;;;;6202966;28;89221;-77
2023/01/23 09:28:57;;;;;;;9.25;8.45;;;22.50;72.30;;;;;;6206590;28;89048;-75
2023/01/23 09:31:59;;;;;;;9.77;8.88;;;22.50;72.30;;;;;;6204267;28;89150;-74
2023/01/23 09:35:03;;;;;;;9.45;8.60;;;22.50;72.30;;;;;;6208799;28;90313;-74
2023/01/23 09:38:08;;;;;;;9.73;8.82;;;22.50;72.30;;;;;;6207779;28;89110;-74
2023/01/23 09:41:17;;;;;;;10.18;9.13;;;22.50;72.40;;;;;;6205310;28;90755;-75
2023/01/23 09:44:22;;;;;;;9.98;8.98;;;22.50;72.30;;;;;;6207056;28;88461;-75
2023/01/23 09:47:32;;;;;;;9.60;8.73;;;22.50;72.30;;;;;;6205718;28;89442;-74
2023/01/23 09:50:40;;;;;;;10.05;9.10;;;22.50;72.30;;;;;;6204488;28;88976;-74
2023/01/23 09:53:42;;;;;;;9.88;8.88;;;22.50;72.30;;;;;;6193976;28;89930;-75
2023/01/23 09:56:47;;;;;;;9.20;8.30;;;22.60;72.30;;;;;;6194304;28;89073;-75
2023/01/23 09:59:52;;;;;;;9.60;8.65;;;22.60;72.30;;;;;;6202603;28;89132;-74
2023/01/23 10:02:55;;;;;;;9.43;8.52;;;22.60;72.30;;;;;;6204978;28;89416;-74
2023/01/23 10:06:13;;;;;;;9.07;8.25;;;22.60;72.30;;;;;;6204953;28;89418;-74
2023/01/23 10:09:27;;;;;;;9.57;8.68;;;22.60;72.20;;;;;;6204559;28;89029;-74
2023/01/23 10:12:41;;;;;;;9.10;8.20;;;22.60;72.20;;;;;;6205359;28;89111;-74
2023/01/23 10:16:02;;;;;;;9.13;8.32;;;22.60;72.20;;;;;;6205887;28;88848;-74
2023/01/23 10:19:15;;;;;;;9.30;8.50;;;22.60;72.20;;;;;;6202058;28;89065;-75
2023/01/23 10:22:33;;;;;;;9.35;8.45;;;22.60;72.20;;;;;;6202092;28;88144;-75
2023/01/23 10:25:39;;;;;;;9.43;8.52;;;22.70;72.40;;;;;;6204624;28;90001;-75
2023/01/23 10:28:43;;;;;;;9.43;8.52;;;22.60;72.30;;;;;;6205044;28;89122;-73
2023/01/23 10:31:50;;;;;;;8.98;8.13;;;22.70;72.30;;;;;;6202091;28;89073;-76
2023/01/23 10:34:58;;;;;;;9.40;8.50;;;22.70;72.30;;;;;;6201173;28;89310;-75
2023/01/23 10:38:10;;;;;;;9.98;8.57;;;22.70;72.40;;;;;;6202516;28;88962;-73
2023/01/23 10:41:18;;;;;;;9.20;8.30;;;22.70;72.50;;;;;;6205096;28;89127;-74
2023/01/23 10:44:21;;;;;;;9.32;8.43;;;22.70;72.50;;;;;;6197910;28;89558;-75
2023/01/23 10:47:29;;;;;;;9.10;8.23;;;22.70;72.50;;;;;;6197321;28;88350;-75
2023/01/23 10:50:38;;;;;;;9.07;8.25;;;22.70;72.50;;;;;;6196373;28;89479;-75
2023/01/23 10:53:41;;;;;;;9.40;8.50;;;22.70;72.50;;;;;;6200810;28;89195;-75
2023/01/23 10:56:51;;;;;;;9.18;8.27;;;22.70;72.50;;;;;;6196797;28;90042;-75
2023/01/23 10:59:59;;;;;;;8.77;7.97;;;22.70;72.50;;;;;;6200417;28;89949;-74
2023/01/23 11:03:26;;;;;;;8.55;7.75;;;22.70;72.50;;;;;;6204400;28;89479;-73
2023/01/23 11:06:28;;;;;;;8.57;7.78;;;22.70;72.50;;;;;;6193089;28;88928;-75
2023/01/23 11:09:32;;;;;;;9.13;8.30;;;22.80;72.50;;;;;;6192520;28;89141;-74
2023/01/23 11:12:46;;;;;;;8.85;7.95;;;22.70;72.40;;;;;;6182407;28;89398;-74
2023/01/23 11:15:49;;;;;;;8.27;7.57;;;22.80;72.50;;;;;;6193675;28;89511;-74
2023/01/23 11:18:54;;;;;;;8.98;8.07;;;22.70;72.40;;;;;;6180747;28;88329;-75
2023/01/23 11:21:59;;;;;;;8.95;7.78;;;22.70;72.30;;;;;;6203158;28;89083;-74
2023/01/23 11:25:26;;;;;;;8.70;7.90;;;22.80;72.40;;;;;;6209037;28;89224;-75
2023/01/23 11:28:33;;;;;;;9.00;7.90;;;22.80;72.40;;;;;;6200660;28;90320;-74
2023/01/23 11:31:36;;;;;;;8.55;7.75;;;22.80;72.40;;;;;;6188352;28;89073;-75
2023/01/23 11:34:42;;;;;;;8.63;7.85;;;22.80;72.30;;;;;;6190858;28;90754;-75
2023/01/23 11:37:45;;;;;;;8.57;7.68;;;22.70;72.30;;;;;;6207637;28;88909;-74
2023/01/23 11:40:48;;;;;;;10.30;8.50;;;22.80;72.30;;;;;;6207249;28;89002;-73
2023/01/23 11:43:50;;;;;;;8.70;7.85;;;22.80;72.30;;;;;;6200516;28;89209;-71
2023/01/23 11:47:18;;;;;;;8.68;7.78;;;22.80;72.60;;;;;;6197153;28;89013;-73
2023/01/23 11:50:41;;;;;;;8.98;8.10;;;22.80;72.70;;;;;;6197919;28;88410;-73
2023/01/23 11:53:50;;;;;;;9.23;8.32;;;22.80;72.70;;;;;;6197077;28;89067;-73
2023/01/23 11:57:12;;;;;;;9.35;8.25;;;22.80;72.50;;;;;;6194174;28;89212;-73
2023/01/23 12:00:33;;;;;;;8.23;7.47;;;22.80;72.60;;;;;;6207579;28;90032;-73
2023/01/23 12:04:08;;;;;;;8.57;7.78;;;22.80;72.50;;;;;;6205195;28;89161;-71
2023/01/23 12:07:19;;;;;;;8.88;7.72;;;22.80;72.50;;;;;;6199485;28;89515;-73
2023/01/23 12:10:27;;;;;;;8.20;7.40;;;22.90;72.50;;;;;;6195797;28;89397;-73
2023/01/23 12:13:50;;;;;;;8.50;7.70;;;22.90;72.50;;;;;;6208016;28;88166;-73
2023/01/23 12:17:11;;;;;;;8.23;7.43;;;22.90;72.40;;;;;;6201731;28;89020;-73
2023/01/23 12:20:26;;;;;;;8.45;7.65;;;22.80;72.40;;;;;;6197341;28;89399;-74
2023/01/23 12:23:49;;;;;;;8.43;7.68;;;22.90;72.30;;;;;;6206809;28;88434;-72
2023/01/23 12:27:01;;;;;;;8.68;7.80;;;22.90;72.30;;;;;;6206890;28;89520;-73
2023/01/23 12:30:27;;;;;;;8.15;7.35;;;22.90;72.30;;;;;;6209355;28;89624;-73
2023/01/23 12:33:54;;;;;;;8.63;7.70;;;22.90;72.30;;;;;;6201357;28;90417;-73
2023/01/23 12:37:11;;;;;;;9.27;7.60;;;22.90;72.20;;;;;;6199521;28;89168;-73
2023/01/23 12:40:21;;;;;;;8.38;7.57;;;22.90;72.20;;;;;;6202056;28;89100;-74
2023/01/23 12:43:35;;;;;;;8.40;7.60;;;22.90;72.30;;;;;;6204234;28;89025;-73
2023/01/23 12:46:44;;;;;;;8.35;7.35;;;22.90;72.30;;;;;;6207482;28;89126;-74
2023/01/23 12:49:53;;;;;;;7.97;7.18;;;23.00;72.30;;;;;;6200328;28;90394;-74
2023/01/23 12:53:01;;;;;;;8.20;7.40;;;23.00;72.30;;;;;;6203469;28;89216;-73
2023/01/23 12:56:09;;;;;;;7.88;6.93;;;23.00;72.30;;;;;;6201156;28;88389;-74
2023/01/23 12:59:19;;;;;;;8.18;7.38;;;23.00;72.30;;;;;;6207031;28;89316;-73
2023/01/23 13:02:33;;;;;;;7.97;7.18;;;22.90;72.20;;;;;;6206970;28;88112;-73
2023/01/23 13:05:44;;;;;;;7.93;7.13;;;23.00;72.20;;;;;;6201285;28;90188;-73
2023/01/23 13:08:52;;;;;;;7.57;6.88;;;23.00;72.20;;;;;;6200612;28;89138;-74
2023/01/23 13:12:04;;;;;;;8.00;6.90;;;23.00;72.40;;;;;;6206869;28;88027;-72
2023/01/23 13:15:31;;;;;;;8.80;7.90;;;23.00;74.00;;;;;;6194456;28;89290;-75
2023/01/23 13:21:59;;;;;;;9.32;7.68;;;23.00;75.20;;;;;;6204123;28;89175;-75
2023/01/23 13:22:04;;;;;;;8.00;7.13;;;23.00;76.00;;;;;;6198908;28;88795;-75
2023/01/23 13:25:16;;;;;;;8.00;7.20;;;23.00;76.00;;;;;;6189309;28;88968;-75
2023/01/23 13:28:34;;;;;;;7.60;6.90;;;23.00;75.90;;;;;;6189687;28;88670;-75
2023/01/23 13:31:40;;;;;;;9.15;7.45;;;23.00;76.10;;;;;;6203590;28;89182;-79
2023/01/23 13:34:43;;;;;;;11.07;8.30;;;23.10;76.40;;;;;;6196341;28;89099;-76
2023/01/23 13:37:50;;;;;;;9.35;8.45;;;23.10;75.00;;;;;;6194967;28;90148;-77
2023/01/23 13:41:25;;;;;;;10.18;8.05;;;23.00;74.00;;;;;;6201897;28;89390;-78
2023/01/23 13:44:30;;;;;;;8.38;7.57;;;23.00;73.70;;;;;;6185934;28;89373;-77
2023/01/23 13:51:10;;;;;;;11.18;8.13;;;23.10;74.20;;;;;;6189269;28;87886;-76
2023/01/23 13:57:37;;;;;;;10.15;8.00;;;23.10;74.20;;;;;;6205880;28;87261;-78
2023/01/23 14:00:41;;;;;;;10.18;7.75;;;23.00;74.00;;;;;;6201582;28;88370;-78
2023/01/23 14:07:43;;;;;;;9.70;7.93;;;23.10;74.20;;;;;;6195888;28;89026;-77
2023/01/23 14:10:48;;;;;;;11.05;7.97;;;23.10;74.10;;;;;;6196289;28;91603;-78
2023/01/23 14:16:08;;;;;;;8.73;7.60;;;23.10;74.00;;;;;;6203658;28;89336;-79
2023/01/23 14:17:12;;;;;;;11.50;7.72;;;23.10;73.90;;;;;;6195697;28;87662;-78
2023/01/23 14:20:18;;;;;;;13.25;8.73;;;23.10;74.90;;;;;;6205408;28;89296;-79
2023/01/23 14:23:35;;;;;;;12.15;8.43;;;23.10;74.00;;;;;;6199192;28;87978;-79
2023/01/23 14:26:49;;;;;;;12.32;8.45;;;23.10;74.20;;;;;;6205494;28;89206;-79
2023/01/23 14:30:01;;;;;;;14.38;9.38;;;23.10;74.20;;;;;;6197842;28;89161;-79
2023/01/23 14:33:11;;;;;;;15.68;9.15;;;23.10;74.70;;;;;;6201914;28;88298;-79
2023/01/23 14:36:15;;;;;;;10.98;8.35;;;23.10;74.80;;;;;;6188959;28;89113;-76
2023/01/23 14:39:21;;;;;;;11.82;8.45;;;23.00;75.90;;;;;;6184563;28;89310;-77
2023/01/23 14:42:27;;;;;;;12.40;8.63;;;23.00;75.00;;;;;;6186904;28;90425;-76
2023/01/23 14:45:31;;;;;;;13.00;9.18;;;23.00;75.00;;;;;;6200056;28;89067;-75
2023/01/23 14:48:38;;;;;;;13.65;8.38;;;23.00;75.00;;;;;;6204646;28;88487;-77
2023/01/23 14:51:53;;;;;;;10.40;8.40;;;23.00;74.70;;;;;;6204227;28;89166;-78
2023/01/23 14:54:56;;;;;;;10.43;7.85;;;23.10;74.60;;;;;;6200671;28;89446;-77
2023/01/23 14:58:00;;;;;;;12.07;8.32;;;23.10;74.60;;;;;;6204595;28;89075;-78
2023/01/23 15:01:03;;;;;;;10.57;7.85;;;23.10;74.50;;;;;;6204469;28;89161;-76
2023/01/23 15:04:07;;;;;;;11.15;7.93;;;23.10;80.40;;;;;;6198700;28;88666;-77
2023/01/23 15:07:17;;;;;;;11.00;8.18;;;23.20;82.00;;;;;;6185108;28;89378;-77
2023/01/23 15:10:23;;;;;;;10.35;7.85;;;23.30;80.10;;;;;;6194283;28;89077;-76
2023/01/23 15:13:29;;;;;;;11.30;8.15;;;23.40;78.60;;;;;;6203505;28;88957;-76
2023/01/23 15:16:34;;;;;;;9.80;7.93;;;23.40;77.70;;;;;;6204415;28;89096;-77
2023/01/23 15:19:37;;;;;;;8.93;7.53;;;23.40;77.00;;;;;;6202706;28;89100;-75
2023/01/23 15:22:40;;;;;;;9.82;7.88;;;23.40;76.60;;;;;;6204829;28;89020;-76
2023/01/23 15:25:44;;;;;;;11.23;7.10;;;23.50;75.80;;;;;;6203941;28;89725;-77
2023/01/23 15:28:50;;;;;;;9.23;7.32;;;23.50;75.40;;;;;;6203875;28;88164;-76
2023/01/23 15:31:53;;;;;;;8.15;7.30;;;23.50;74.50;;;;;;6204998;28;89079;-77
2023/01/23 15:34:57;;;;;;;10.07;7.15;;;23.60;74.60;;;;;;6205715;28;88375;-78
2023/01/23 15:38:03;;;;;;;9.52;7.28;;;23.50;74.20;;;;;;6203568;28;89678;-77
2023/01/23 15:41:10;;;;;;;8.63;7.57;;;23.50;74.00;;;;;;6191740;28;89054;-77
2023/01/23 15:44:15;;;;;;;8.88;7.25;;;23.50;74.00;;;;;;6202731;28;90470;-77
2023/01/23 15:47:17;;;;;;;7.85;7.03;;;23.50;73.90;;;;;;6203435;28;89182;-77
2023/01/23 15:50:19;;;;;;;7.43;6.60;;;23.50;73.80;;;;;;6204927;28;89110;-77
2023/01/23 15:53:21;;;;;;;8.82;7.47;;;23.50;73.70;;;;;;6199884;28;89067;-75
2023/01/23 15:56:28;;;;;;;7.70;6.90;;;23.50;73.60;;;;;;6196755;28;89116;-76
2023/01/23 15:59:32;;;;;;;8.57;7.00;;;23.50;74.60;;;;;;6197058;28;89038;-76
2023/01/23 16:02:34;;;;;;;7.70;6.50;;;23.50;73.40;;;;;;6196385;28;89218;-75
2023/01/23 16:05:38;;;;;;;8.35;6.90;;;23.50;73.30;;;;;;6194313;28;89062;-76
2023/01/23 16:08:40;;;;;;;7.35;6.35;;;23.50;73.40;;;;;;6196725;28;89005;-76
2023/01/23 16:11:43;;;;;;;7.97;6.53;;;23.50;73.30;;;;;;6199717;28;89205;-77
2023/01/23 16:14:46;;;;;;;9.57;6.57;;;23.50;73.50;;;;;;6208115;28;90085;-78